Decoded Metar for PGSN (SAIPAN in MARIANA ISLANDS) (IATA:SPN) | Meteo·Mobile Aviation Weather
aviador You're here:

PGSN Decoded Metar

SAIPAN in MARIANA ISLANDS
Report Time2018-10-20 02:54:00
UTC Time2018-10-20 03:59:27
Flight Rules vfr VFR
Wind030° at 06 kt
W.Decomp.*RWY 06: 5.1 kt HW 3.2 kt LCW
RWY 07: 4.5 kt HW 4 kt LCW
W.Rank030° ranks 10
Current wind is below 030° avg. (8.0)
Visibility9999 m
Phenomena:N/A
Clouds:Scattered 023 Hf
Scattered 031 Hf
Expected CloudBase > 1,200 ft AGL from Temp-Dew spread
CeilingNone
Temp29°C (ISA +14)
Dew Point26°C (84% RH)
Heat Index35.6°C
QNH1008 hPa
Density Alt2,477 ft
Elevation213 ft
Report Wrong Elevation
Raw Report
PGSN 200254Z 03006KT 10SM SCT023 SCT031 29/26 A2978 RMK AO2
RAB00E04 SLP106 P0005 60005 T02890256 58020 $=

Extra information for PGSN:More info

Metar Taf Metar & Taf Last 4 Metars F.Rules Stats Wind Profile Meteogram Temp Stats Airport Information Weather charts Add Link Nearby VenuesMetar ALERT Operation Metar Decoded Social comments